Open Full Screen Window  High Contrast Mode
August 21, 2014 11:54 PM EDT
Weather Information
Wind Direction
  ---
Wind Speed
  00 kt (0 mph)
Wind Gust
  00 kt (0 mph)
Altimeter
29.99 in
Visibility
10 SM
Temperature
21° C
70° F
Dewpoint
19° C
66° F
Humidity
88%
1hr Rain Fall
00.00 in.
24hr Rain Fall
00.00 in.
Sky Condition
Overcast @ 6,000 ft
Scattered @ 4,200 ft
VFR

METAR KIKW 220354Z AUTO 00000KT 10SM SCT042 OVC060 21/19 A2999 RMK AO2 T02050188

*Background is not an actual portrayal of the airport.